KRIC/RIC METAR and TAF weather

Enter ICAO airport designator
Station Type Date Time Source
KRIC METAR 2022/08/16 19:54 UTC NOAA

KRIC 161954Z 03008KT 10SM SCT055 SCT130 27/15 A2996 RMK AO2 SLP147 T02720150


Station Type Date Time Source
KRIC Decoded METAR 2022/08/16 19:54 UTC NOAA

RICHMOND INTERNATIONAL AIRPORT, VA, United States (KRIC) 37-31N 077-19W 50M
Aug 16, 2022 - 03:54 PM EDT / 2022.08.16 1954 UTC
Wind: from the NNE (030 degrees) at 9 MPH (8 KT):0
Visibility: 10 mile(s):0
Sky conditions: partly cloudy
Temperature: 81.0 F (27.2 C)
Dew Point: 59.0 F (15.0 C)
Relative Humidity: 47%
Pressure (altimeter): 29.96 in. Hg (1014 hPa)
ob: KRIC 161954Z 03008KT 10SM SCT055 SCT130 27/15 A2996 RMK AO2 SLP147 T02720150
cycle: 20

Station Type Date Time Source
KRIC TAF 2022/08/16 18:22 UTC NOAA

TAF KRIC 161720Z 1618/1718 04007KT P6SM VCSH FEW015 BKN050
FM170100 06003KT P6SM BKN200

Example: see airport list